sensor_id;sensor_type;location;lat;lon;timestamp;P1;durP1;ratioP1;P2;durP2;ratioP2
48975;SDS011;34791;52.752;8.346;2022-11-20T14:50:38;16.40;;;9.33;;
48975;SDS011;34791;52.752;8.346;2022-11-20T14:53:04;18.27;;;9.70;;
48975;SDS011;34791;52.752;8.346;2022-11-20T14:55:33;18.60;;;8.73;;
48975;SDS011;34791;52.752;8.346;2022-11-20T14:58:01;16.27;;;8.90;;
48975;SDS011;34791;52.752;8.346;2022-11-20T15:00:26;19.50;;;9.60;;
48975;SDS011;34791;52.752;8.346;2022-11-20T15:02:52;17.50;;;8.93;;
48975;SDS011;34791;52.752;8.346;2022-11-20T15:05:19;16.53;;;9.03;;
48975;SDS011;34791;52.752;8.346;2022-11-20T15:07:46;18.20;;;9.73;;
48975;SDS011;34791;52.752;8.346;2022-11-20T15:10:13;19.17;;;9.43;;
48975;SDS011;34791;52.752;8.346;2022-11-20T15:12:41;19.50;;;9.17;;
48975;SDS011;34791;52.752;8.346;2022-11-20T15:15:11;24.00;;;10.05;;
48975;SDS011;34791;52.752;8.346;2022-11-20T15:17:37;19.30;;;10.00;;
48975;SDS011;34791;52.752;8.346;2022-11-20T15:20:05;20.87;;;10.53;;
48975;SDS011;34791;52.752;8.346;2022-11-20T15:22:34;19.63;;;10.47;;
48975;SDS011;34791;52.752;8.346;2022-11-20T15:25:00;20.13;;;10.33;;
48975;SDS011;34791;52.752;8.346;2022-11-20T15:27:25;18.30;;;9.10;;
48975;SDS011;34791;52.752;8.346;2022-11-20T15:29:50;19.53;;;10.00;;
48975;SDS011;34791;52.752;8.346;2022-11-20T15:32:16;19.47;;;10.30;;
48975;SDS011;34791;52.752;8.346;2022-11-20T15:34:41;19.00;;;10.57;;
48975;SDS011;34791;52.752;8.346;2022-11-20T15:37:06;20.63;;;10.83;;
48975;SDS011;34791;52.752;8.346;2022-11-20T15:39:31;22.13;;;11.43;;
48975;SDS011;34791;52.752;8.346;2022-11-20T15:41:57;23.00;;;12.07;;
48975;SDS011;34791;52.752;8.346;2022-11-20T15:44:22;27.83;;;13.30;;
48975;SDS011;34791;52.752;8.346;2022-11-20T15:46:47;26.30;;;12.87;;
48975;SDS011;34791;52.752;8.346;2022-11-20T15:49:14;25.67;;;13.00;;
48975;SDS011;34791;52.752;8.346;2022-11-20T15:51:40;26.20;;;13.70;;
48975;SDS011;34791;52.752;8.346;2022-11-20T15:54:10;24.43;;;12.27;;
48975;SDS011;34791;52.752;8.346;2022-11-20T15:56:36;23.80;;;12.00;;
48975;SDS011;34791;52.752;8.346;2022-11-20T15:59:02;25.60;;;12.03;;
48975;SDS011;34791;52.752;8.346;2022-11-20T16:01:27;28.80;;;13.73;;
48975;SDS011;34791;52.752;8.346;2022-11-20T16:03:52;28.27;;;13.77;;
48975;SDS011;34791;52.752;8.346;2022-11-20T16:06:18;23.77;;;13.30;;
48975;SDS011;34791;52.752;8.346;2022-11-20T16:08:43;26.20;;;12.47;;
48975;SDS011;34791;52.752;8.346;2022-11-20T16:11:10;24.57;;;12.87;;
48975;SDS011;34791;52.752;8.346;2022-11-20T16:13:37;24.50;;;13.93;;
48975;SDS011;34791;52.752;8.346;2022-11-20T16:16:21;26.37;;;13.70;;
48975;SDS011;34791;52.752;8.346;2022-11-20T16:18:47;32.97;;;18.10;;
48975;SDS011;34791;52.752;8.346;2022-11-20T16:21:12;42.07;;;24.70;;
48975;SDS011;34791;52.752;8.346;2022-11-20T16:23:41;28.20;;;14.30;;
48975;SDS011;34791;52.752;8.346;2022-11-20T16:26:11;25.53;;;13.07;;
48975;SDS011;34791;52.752;8.346;2022-11-20T16:28:36;26.53;;;12.97;;
48975;SDS011;34791;52.752;8.346;2022-11-20T16:31:08;25.17;;;12.17;;
48975;SDS011;34791;52.752;8.346;2022-11-20T16:33:33;23.23;;;11.80;;
48975;SDS011;34791;52.752;8.346;2022-11-20T16:36:05;26.00;;;12.83;;
48975;SDS011;34791;52.752;8.346;2022-11-20T16:38:30;25.03;;;13.57;;
48975;SDS011;34791;52.752;8.346;2022-11-20T16:40:59;25.20;;;12.90;;
48975;SDS011;34791;52.752;8.346;2022-11-20T16:43:24;22.80;;;12.47;;
48975;SDS011;34791;52.752;8.346;2022-11-20T16:45:50;24.50;;;12.83;;
48975;SDS011;34791;52.752;8.346;2022-11-20T16:48:17;25.53;;;13.53;;
48975;SDS011;34791;52.752;8.346;2022-11-20T16:50:52;28.07;;;13.83;;
48975;SDS011;34791;52.752;8.346;2022-11-20T16:53:18;25.90;;;13.60;;
48975;SDS011;34791;52.752;8.346;2022-11-20T16:55:43;27.43;;;14.63;;
48975;SDS011;34791;52.752;8.346;2022-11-20T16:58:08;26.20;;;13.53;;
48975;SDS011;34791;52.752;8.346;2022-11-20T17:00:40;29.17;;;14.07;;
48975;SDS011;34791;52.752;8.346;2022-11-20T17:03:05;29.25;;;14.93;;
48975;SDS011;34791;52.752;8.346;2022-11-20T17:05:31;27.90;;;14.87;;
48975;SDS011;34791;52.752;8.346;2022-11-20T17:07:56;29.27;;;14.53;;
48975;SDS011;34791;52.752;8.346;2022-11-20T17:10:21;32.00;;;15.77;;
48975;SDS011;34791;52.752;8.346;2022-11-20T17:12:47;27.70;;;13.50;;
48975;SDS011;34791;52.752;8.346;2022-11-20T17:15:12;29.83;;;14.90;;
48975;SDS011;34791;52.752;8.346;2022-11-20T17:17:37;30.23;;;15.23;;
48975;SDS011;34791;52.752;8.346;2022-11-20T17:20:02;29.50;;;14.87;;
48975;SDS011;34791;52.752;8.346;2022-11-20T17:22:28;27.73;;;14.30;;
48975;SDS011;34791;52.752;8.346;2022-11-20T17:24:53;34.87;;;18.37;;
48975;SDS011;34791;52.752;8.346;2022-11-20T17:27:18;32.73;;;15.73;;
48975;SDS011;34791;52.752;8.346;2022-11-20T17:29:43;31.53;;;17.03;;
48975;SDS011;34791;52.752;8.346;2022-11-20T17:32:09;26.83;;;14.00;;
48975;SDS011;34791;52.752;8.346;2022-11-20T17:34:34;24.80;;;12.27;;
48975;SDS011;34791;52.752;8.346;2022-11-20T17:36:59;26.97;;;13.13;;
48975;SDS011;34791;52.752;8.346;2022-11-20T17:39:24;30.60;;;14.00;;
48975;SDS011;34791;52.752;8.346;2022-11-20T17:41:50;28.03;;;13.50;;
48975;SDS011;34791;52.752;8.346;2022-11-20T17:44:35;26.87;;;13.77;;
48975;SDS011;34791;52.752;8.346;2022-11-20T17:47:00;29.17;;;13.83;;
48975;SDS011;34791;52.752;8.346;2022-11-20T17:49:25;27.70;;;14.07;;
48975;SDS011;34791;52.752;8.346;2022-11-20T17:51:51;27.10;;;14.87;;
48975;SDS011;34791;52.752;8.346;2022-11-20T17:54:16;29.67;;;14.37;;
48975;SDS011;34791;52.752;8.346;2022-11-20T17:56:41;28.93;;;14.50;;
48975;SDS011;34791;52.752;8.346;2022-11-20T17:59:25;29.17;;;14.00;;
48975;SDS011;34791;52.752;8.346;2022-11-20T18:01:50;26.83;;;12.63;;
48975;SDS011;34791;52.752;8.346;2022-11-20T18:04:15;25.83;;;14.70;;
48975;SDS011;34791;52.752;8.346;2022-11-20T18:06:41;30.47;;;15.17;;
48975;SDS011;34791;52.752;8.346;2022-11-20T18:09:06;31.43;;;15.30;;
48975;SDS011;34791;52.752;8.346;2022-11-20T18:11:33;32.77;;;15.33;;
48975;SDS011;34791;52.752;8.346;2022-11-20T18:13:59;29.53;;;14.93;;
48975;SDS011;34791;52.752;8.346;2022-11-20T18:16:44;28.73;;;14.47;;
48975;SDS011;34791;52.752;8.346;2022-11-20T18:19:10;28.97;;;13.87;;
48975;SDS011;34791;52.752;8.346;2022-11-20T18:21:36;28.93;;;13.07;;
48975;SDS011;34791;52.752;8.346;2022-11-20T18:24:02;26.17;;;12.40;;
48975;SDS011;34791;52.752;8.346;2022-11-20T18:26:27;25.70;;;12.60;;
48975;SDS011;34791;52.752;8.346;2022-11-20T18:28:53;23.43;;;11.03;;
48975;SDS011;34791;52.752;8.346;2022-11-20T18:31:18;25.97;;;12.73;;
48975;SDS011;34791;52.752;8.346;2022-11-20T18:33:43;27.07;;;12.90;;
48975;SDS011;34791;52.752;8.346;2022-11-20T18:38:34;28.03;;;14.00;;
48975;SDS011;34791;52.752;8.346;2022-11-20T18:40:59;28.37;;;14.33;;
48975;SDS011;34791;52.752;8.346;2022-11-20T18:43:24;24.47;;;11.80;;
48975;SDS011;34791;52.752;8.346;2022-11-20T18:46:08;28.87;;;13.37;;
48975;SDS011;34791;52.752;8.346;2022-11-20T18:48:34;27.50;;;13.03;;
48975;SDS011;34791;52.752;8.346;2022-11-20T18:51:05;26.97;;;12.13;;
48975;SDS011;34791;52.752;8.346;2022-11-20T18:53:31;26.27;;;12.93;;
48975;SDS011;34791;52.752;8.346;2022-11-20T18:55:56;27.23;;;12.53;;
48975;SDS011;34791;52.752;8.346;2022-11-20T18:58:21;25.63;;;11.53;;
48975;SDS011;34791;52.752;8.346;2022-11-20T19:00:46;27.73;;;13.87;;
48975;SDS011;34791;52.752;8.346;2022-11-20T19:03:11;27.37;;;12.53;;
48975;SDS011;34791;52.752;8.346;2022-11-20T19:05:37;23.77;;;10.20;;
48975;SDS011;34791;52.752;8.346;2022-11-20T19:08:02;23.97;;;11.40;;
48975;SDS011;34791;52.752;8.346;2022-11-20T19:10:28;27.43;;;13.10;;
48975;SDS011;34791;52.752;8.346;2022-11-20T19:12:53;22.47;;;10.27;;
48975;SDS011;34791;52.752;8.346;2022-11-20T19:15:18;25.33;;;12.90;;
48975;SDS011;34791;52.752;8.346;2022-11-20T19:17:44;24.90;;;12.80;;
48975;SDS011;34791;52.752;8.346;2022-11-20T19:20:09;26.60;;;13.43;;
48975;SDS011;34791;52.752;8.346;2022-11-20T19:22:34;22.73;;;12.40;;
48975;SDS011;34791;52.752;8.346;2022-11-20T19:25:00;22.97;;;11.40;;
48975;SDS011;34791;52.752;8.346;2022-11-20T19:27:25;25.20;;;12.27;;
48975;SDS011;34791;52.752;8.346;2022-11-20T19:29:50;29.53;;;14.87;;
48975;SDS011;34791;52.752;8.346;2022-11-20T19:32:15;23.33;;;11.60;;
48975;SDS011;34791;52.752;8.346;2022-11-20T19:34:41;28.97;;;14.97;;
48975;SDS011;34791;52.752;8.346;2022-11-20T19:37:06;27.03;;;13.60;;
48975;SDS011;34791;52.752;8.346;2022-11-20T19:39:31;25.37;;;13.40;;
48975;SDS011;34791;52.752;8.346;2022-11-20T19:41:57;28.77;;;14.20;;
48975;SDS011;34791;52.752;8.346;2022-11-20T19:44:22;25.43;;;12.80;;
48975;SDS011;34791;52.752;8.346;2022-11-20T19:46:47;27.63;;;13.97;;
48975;SDS011;34791;52.752;8.346;2022-11-20T19:49:14;29.33;;;15.20;;
48975;SDS011;34791;52.752;8.346;2022-11-20T19:51:44;24.33;;;12.13;;
48975;SDS011;34791;52.752;8.346;2022-11-20T19:54:09;33.00;;;15.33;;
48975;SDS011;34791;52.752;8.346;2022-11-20T19:56:34;29.60;;;14.07;;
48975;SDS011;34791;52.752;8.346;2022-11-20T19:59:00;28.27;;;14.63;;
48975;SDS011;34791;52.752;8.346;2022-11-20T20:01:27;23.77;;;11.23;;
48975;SDS011;34791;52.752;8.346;2022-11-20T20:03:52;26.70;;;14.20;;
48975;SDS011;34791;52.752;8.346;2022-11-20T20:06:19;27.17;;;14.00;;
48975;SDS011;34791;52.752;8.346;2022-11-20T20:08:45;26.50;;;13.93;;
48975;SDS011;34791;52.752;8.346;2022-11-20T20:11:13;25.97;;;13.50;;
48975;SDS011;34791;52.752;8.346;2022-11-20T20:13:39;28.97;;;13.93;;
48975;SDS011;34791;52.752;8.346;2022-11-20T20:16:08;29.13;;;13.93;;
48975;SDS011;34791;52.752;8.346;2022-11-20T20:18:34;26.57;;;13.80;;
48975;SDS011;34791;52.752;8.346;2022-11-20T20:21:03;28.13;;;14.60;;
48975;SDS011;34791;52.752;8.346;2022-11-20T20:23:29;22.63;;;12.03;;
48975;SDS011;34791;52.752;8.346;2022-11-20T20:25:54;27.47;;;14.00;;
48975;SDS011;34791;52.752;8.346;2022-11-20T20:28:19;29.67;;;14.37;;
48975;SDS011;34791;52.752;8.346;2022-11-20T20:30:44;29.27;;;14.50;;
48975;SDS011;34791;52.752;8.346;2022-11-20T20:33:09;28.40;;;15.30;;
48975;SDS011;34791;52.752;8.346;2022-11-20T20:35:38;31.47;;;16.50;;
48975;SDS011;34791;52.752;8.346;2022-11-20T20:38:03;32.90;;;17.60;;
48975;SDS011;34791;52.752;8.346;2022-11-20T20:40:29;29.50;;;16.27;;
48975;SDS011;34791;52.752;8.346;2022-11-20T20:42:54;34.67;;;17.43;;
48975;SDS011;34791;52.752;8.346;2022-11-20T20:45:19;30.97;;;16.37;;
48975;SDS011;34791;52.752;8.346;2022-11-20T20:47:44;26.07;;;13.00;;
48975;SDS011;34791;52.752;8.346;2022-11-20T20:50:10;29.43;;;15.03;;
48975;SDS011;34791;52.752;8.346;2022-11-20T20:52:35;25.53;;;12.60;;
48975;SDS011;34791;52.752;8.346;2022-11-20T20:55:00;27.07;;;11.53;;
48975;SDS011;34791;52.752;8.346;2022-11-20T20:57:26;23.30;;;11.70;;
48975;SDS011;34791;52.752;8.346;2022-11-20T20:59:52;26.77;;;13.47;;
48975;SDS011;34791;52.752;8.346;2022-11-20T21:02:19;27.10;;;13.50;;
48975;SDS011;34791;52.752;8.346;2022-11-20T21:04:44;25.50;;;12.60;;
48975;SDS011;34791;52.752;8.346;2022-11-20T21:07:10;26.37;;;12.50;;
48975;SDS011;34791;52.752;8.346;2022-11-20T21:09:35;24.80;;;12.73;;
48975;SDS011;34791;52.752;8.346;2022-11-20T21:12:01;26.87;;;14.30;;
48975;SDS011;34791;52.752;8.346;2022-11-20T21:14:26;25.20;;;12.43;;
48975;SDS011;34791;52.752;8.346;2022-11-20T21:16:51;24.90;;;12.33;;
48975;SDS011;34791;52.752;8.346;2022-11-20T21:19:16;24.47;;;12.23;;
48975;SDS011;34791;52.752;8.346;2022-11-20T21:21:42;23.80;;;11.27;;
48975;SDS011;34791;52.752;8.346;2022-11-20T21:24:36;27.10;;;14.10;;
48975;SDS011;34791;52.752;8.346;2022-11-20T21:27:02;25.53;;;13.53;;
48975;SDS011;34791;52.752;8.346;2022-11-20T21:29:28;25.43;;;13.07;;
48975;SDS011;34791;52.752;8.346;2022-11-20T21:31:54;29.10;;;14.53;;
48975;SDS011;34791;52.752;8.346;2022-11-20T21:34:20;29.57;;;14.73;;
48975;SDS011;34791;52.752;8.346;2022-11-20T21:36:45;27.93;;;15.23;;
48975;SDS011;34791;52.752;8.346;2022-11-20T21:39:11;28.73;;;13.43;;
48975;SDS011;34791;52.752;8.346;2022-11-20T21:41:37;28.20;;;15.13;;
48975;SDS011;34791;52.752;8.346;2022-11-20T21:44:03;29.33;;;15.93;;
48975;SDS011;34791;52.752;8.346;2022-11-20T21:46:29;27.10;;;15.00;;
48975;SDS011;34791;52.752;8.346;2022-11-20T21:48:55;29.70;;;15.40;;
48975;SDS011;34791;52.752;8.346;2022-11-20T21:51:21;27.93;;;15.17;;
48975;SDS011;34791;52.752;8.346;2022-11-20T21:53:47;26.83;;;13.87;;
48975;SDS011;34791;52.752;8.346;2022-11-20T21:56:13;29.17;;;14.07;;
48975;SDS011;34791;52.752;8.346;2022-11-20T21:58:39;28.27;;;14.93;;
48975;SDS011;34791;52.752;8.346;2022-11-20T22:03:37;27.15;;;14.95;;
48975;SDS011;34791;52.752;8.346;2022-11-20T22:06:02;27.43;;;14.53;;
48975;SDS011;34791;52.752;8.346;2022-11-20T22:08:27;27.63;;;14.83;;
48975;SDS011;34791;52.752;8.346;2022-11-20T22:10:56;28.00;;;13.77;;
48975;SDS011;34791;52.752;8.346;2022-11-20T22:13:22;31.00;;;15.30;;
48975;SDS011;34791;52.752;8.346;2022-11-20T22:16:06;28.27;;;14.97;;
48975;SDS011;34791;52.752;8.346;2022-11-20T22:18:31;29.23;;;13.60;;
48975;SDS011;34791;52.752;8.346;2022-11-20T22:21:01;27.70;;;13.43;;
48975;SDS011;34791;52.752;8.346;2022-11-20T22:23:26;27.03;;;14.40;;
48975;SDS011;34791;52.752;8.346;2022-11-20T22:25:52;26.63;;;14.70;;
48975;SDS011;34791;52.752;8.346;2022-11-20T22:28:17;29.07;;;14.97;;
48975;SDS011;34791;52.752;8.346;2022-11-20T22:30:42;26.87;;;13.87;;
48975;SDS011;34791;52.752;8.346;2022-11-20T22:33:08;24.90;;;12.80;;
48975;SDS011;34791;52.752;8.346;2022-11-20T22:35:33;26.50;;;14.00;;
48975;SDS011;34791;52.752;8.346;2022-11-20T22:37:58;27.67;;;14.20;;
48975;SDS011;34791;52.752;8.346;2022-11-20T22:40:24;26.63;;;13.83;;
48975;SDS011;34791;52.752;8.346;2022-11-20T22:42:49;28.83;;;14.43;;
48975;SDS011;34791;52.752;8.346;2022-11-20T22:45:14;25.10;;;13.33;;
48975;SDS011;34791;52.752;8.346;2022-11-20T22:47:39;27.17;;;14.77;;
48975;SDS011;34791;52.752;8.346;2022-11-20T22:50:05;29.00;;;13.97;;
48975;SDS011;34791;52.752;8.346;2022-11-20T22:52:30;27.30;;;13.63;;
48975;SDS011;34791;52.752;8.346;2022-11-20T22:54:55;26.93;;;14.20;;
48975;SDS011;34791;52.752;8.346;2022-11-20T22:57:21;26.13;;;12.50;;
48975;SDS011;34791;52.752;8.346;2022-11-20T22:59:46;27.87;;;14.03;;
48975;SDS011;34791;52.752;8.346;2022-11-20T23:02:11;25.17;;;13.33;;
48975;SDS011;34791;52.752;8.346;2022-11-20T23:04:36;24.37;;;12.77;;
48975;SDS011;34791;52.752;8.346;2022-11-20T23:07:02;25.33;;;13.60;;
48975;SDS011;34791;52.752;8.346;2022-11-20T23:09:27;28.33;;;12.90;;
48975;SDS011;34791;52.752;8.346;2022-11-20T23:11:52;26.00;;;13.70;;
48975;SDS011;34791;52.752;8.346;2022-11-20T23:14:17;23.87;;;13.37;;
48975;SDS011;34791;52.752;8.346;2022-11-20T23:16:43;24.87;;;13.20;;
48975;SDS011;34791;52.752;8.346;2022-11-20T23:19:09;25.90;;;14.60;;
48975;SDS011;34791;52.752;8.346;2022-11-20T23:21:35;24.87;;;13.87;;
48975;SDS011;34791;52.752;8.346;2022-11-20T23:24:01;25.57;;;13.57;;
48975;SDS011;34791;52.752;8.346;2022-11-20T23:26:27;26.80;;;13.23;;
48975;SDS011;34791;52.752;8.346;2022-11-20T23:28:53;24.30;;;12.33;;
48975;SDS011;34791;52.752;8.346;2022-11-20T23:31:20;22.87;;;12.63;;
48975;SDS011;34791;52.752;8.346;2022-11-20T23:33:46;24.73;;;13.10;;
48975;SDS011;34791;52.752;8.346;2022-11-20T23:36:11;27.80;;;13.47;;
48975;SDS011;34791;52.752;8.346;2022-11-20T23:38:37;23.80;;;13.30;;
48975;SDS011;34791;52.752;8.346;2022-11-20T23:41:02;35.33;;;18.87;;
48975;SDS011;34791;52.752;8.346;2022-11-20T23:43:27;27.07;;;14.50;;
48975;SDS011;34791;52.752;8.346;2022-11-20T23:45:53;24.87;;;13.17;;
48975;SDS011;34791;52.752;8.346;2022-11-20T23:48:20;27.17;;;14.13;;
48975;SDS011;34791;52.752;8.346;2022-11-20T23:50:46;30.23;;;15.70;;
48975;SDS011;34791;52.752;8.346;2022-11-20T23:53:12;28.13;;;15.33;;
48975;SDS011;34791;52.752;8.346;2022-11-20T23:55:38;29.30;;;14.90;;
48975;SDS011;34791;52.752;8.346;2022-11-20T23:58:03;32.80;;;17.23;;
